Terminal Aerodrome Forecast
Issued by NWS

Home | Current Version | Previous Version | Text Only | Print | Product List | Glossary On
Versions: 1 2 3 4 5 6 7 8 9 10 11 12 13 14 15 16 17 18 19 20 21 22 23 24 25
000
FTUS44 KLIX 010500 RRA
TAFHUM
TAF
KHUM 010542Z 0106/0206 08010KT 6SM BR OVC007
     FM010800 08009KT 3SM BR BKN007
      TEMPO 0109/0113 1SM BR BKN004
     FM011330 09012KT P6SM OVC018
     FM011700 11011KT 4SM -RA BR BKN012
     FM020100 11008KT P6SM OVC015=

USA.gov is the U.S. government's official web portal to all federal, state and local government web resources and services.